createdAt,value
2019-03-13T00:00:19.380Z,1.60
2019-03-13T00:01:19.396Z,1.50
2019-03-13T00:02:19.388Z,1.60
2019-03-13T00:03:19.397Z,1.50
2019-03-13T00:04:19.396Z,1.60
2019-03-13T00:05:19.403Z,1.60
2019-03-13T00:06:19.400Z,1.60
2019-03-13T00:07:19.406Z,1.50
2019-03-13T00:08:19.409Z,1.40
2019-03-13T00:09:19.418Z,2.00
2019-03-13T00:10:19.426Z,1.70
2019-03-13T00:11:19.425Z,1.50
2019-03-13T00:12:19.418Z,1.60
2019-03-13T00:13:19.421Z,1.50
2019-03-13T00:14:19.426Z,2.10
2019-03-13T00:15:19.431Z,1.20
2019-03-13T00:16:19.437Z,1.50
2019-03-13T00:17:19.439Z,1.60
2019-03-13T00:18:19.448Z,1.70
2019-03-13T00:19:19.441Z,1.70
2019-03-13T00:20:19.447Z,1.70
2019-03-13T00:21:19.454Z,1.50
2019-03-13T00:22:19.459Z,1.50
2019-03-13T00:23:19.457Z,1.70
2019-03-13T00:24:19.464Z,1.30
2019-03-13T00:25:19.463Z,1.70
2019-03-13T00:26:19.468Z,1.60
2019-03-13T00:27:19.474Z,1.50
2019-03-13T00:28:19.477Z,1.60
2019-03-13T00:29:19.476Z,1.50
2019-03-13T00:30:19.485Z,1.70
2019-03-13T00:31:19.493Z,1.60
2019-03-13T00:32:19.485Z,1.70
2019-03-13T00:33:19.489Z,1.40
2019-03-13T00:34:19.502Z,1.60
2019-03-13T00:35:19.484Z,1.70
2019-03-13T00:36:19.498Z,1.60
2019-03-13T00:37:19.501Z,1.40
2019-03-13T00:38:19.508Z,1.70
2019-03-13T00:39:19.502Z,1.50
2019-03-13T00:40:19.515Z,1.50
2019-03-13T00:41:19.524Z,1.40
2019-03-13T00:42:19.523Z,1.40
2019-03-13T00:43:20.182Z,1.50
2019-03-13T00:44:19.520Z,1.70
2019-03-13T00:45:19.517Z,1.70
2019-03-13T00:46:19.529Z,1.50
2019-03-13T00:47:19.531Z,1.60
2019-03-13T00:48:19.544Z,1.40
2019-03-13T00:49:19.539Z,1.50
2019-03-13T00:50:19.546Z,1.50
2019-03-13T00:51:19.553Z,1.60
2019-03-13T00:52:19.546Z,1.40
2019-03-13T00:53:19.641Z,1.40
2019-03-13T00:54:19.641Z,1.50
2019-03-13T00:55:19.642Z,1.60
2019-03-13T00:56:19.564Z,1.40
2019-03-13T00:57:19.726Z,1.30
2019-03-13T00:58:19.568Z,1.30
2019-03-13T00:59:19.574Z,1.80
2019-03-13T01:00:19.583Z,1.50
2019-03-13T01:01:19.668Z,1.40
2019-03-13T01:02:19.580Z,1.30
2019-03-13T01:03:19.591Z,1.70
2019-03-13T01:04:19.584Z,1.30
2019-03-13T01:05:19.643Z,1.60
2019-03-13T01:06:19.594Z,1.40
2019-03-13T01:07:19.702Z,1.30
2019-03-13T01:08:19.604Z,1.50
2019-03-13T01:09:19.635Z,1.70
2019-03-13T01:10:19.608Z,1.50
2019-03-13T01:11:19.615Z,1.60
2019-03-13T01:12:19.615Z,1.60
2019-03-13T01:13:19.643Z,1.40
2019-03-13T01:14:19.620Z,1.60
2019-03-13T01:15:19.626Z,1.30
2019-03-13T01:16:19.621Z,1.40
2019-03-13T01:17:19.642Z,1.50
2019-03-13T01:18:19.628Z,1.80
2019-03-13T01:19:19.640Z,1.50
2019-03-13T01:20:19.640Z,1.40
2019-03-13T01:21:19.682Z,1.50
2019-03-13T01:22:19.646Z,1.50
2019-03-13T01:23:19.652Z,1.70
2019-03-13T01:24:19.650Z,1.40
2019-03-13T01:25:19.708Z,1.40
2019-03-13T01:26:19.659Z,1.30
2019-03-13T01:27:19.668Z,1.70
2019-03-13T01:28:19.670Z,1.20
2019-03-13T01:29:19.676Z,1.20
2019-03-13T01:30:19.674Z,1.40
2019-03-13T01:31:19.672Z,1.50
2019-03-13T01:32:19.676Z,1.30
2019-03-13T01:33:19.686Z,1.40
2019-03-13T01:34:19.689Z,1.40
2019-03-13T01:35:19.687Z,1.50
2019-03-13T01:36:19.692Z,1.50
2019-03-13T01:37:19.702Z,1.50
2019-03-13T01:38:19.698Z,1.50
2019-03-13T01:39:19.703Z,1.40
2019-03-13T01:40:19.708Z,1.50
2019-03-13T01:41:19.710Z,1.40
2019-03-13T01:42:19.713Z,1.70
2019-03-13T01:43:19.767Z,1.70
2019-03-13T01:44:19.715Z,1.60
2019-03-13T01:45:19.730Z,1.40
2019-03-13T01:46:19.721Z,1.30
2019-03-13T01:47:19.735Z,1.50
2019-03-13T01:48:19.725Z,1.50
2019-03-13T01:49:19.728Z,1.40
2019-03-13T01:50:19.736Z,1.60
2019-03-13T01:51:19.743Z,1.40
2019-03-13T01:52:19.738Z,1.50
2019-03-13T01:53:19.783Z,1.30
2019-03-13T01:54:19.750Z,1.50
2019-03-13T01:55:19.755Z,1.40
2019-03-13T01:56:19.754Z,1.50
2019-03-13T01:57:19.752Z,1.80
2019-03-13T01:58:19.760Z,1.50
2019-03-13T01:59:19.771Z,1.20
2019-03-13T02:00:19.847Z,1.50
2019-03-13T02:01:19.758Z,1.40
2019-03-13T02:02:19.772Z,1.40
2019-03-13T02:03:19.784Z,1.40
2019-03-13T02:04:19.778Z,1.60
2019-03-13T02:05:19.780Z,1.60
2019-03-13T02:06:19.782Z,1.40
2019-03-13T02:07:19.789Z,1.60
2019-03-13T02:08:19.796Z,1.50
2019-03-13T02:09:19.802Z,1.30
2019-03-13T02:10:19.797Z,1.30
2019-03-13T02:11:19.806Z,2.20
2019-03-13T02:12:19.830Z,1.60
2019-03-13T02:13:19.800Z,1.60
2019-03-13T02:14:19.812Z,1.50
2019-03-13T02:15:19.819Z,1.40
2019-03-13T02:16:19.818Z,1.40
2019-03-13T02:17:19.818Z,1.30
2019-03-13T02:18:19.826Z,1.40
2019-03-13T02:19:19.823Z,1.40
2019-03-13T02:20:19.834Z,1.40
2019-03-13T02:21:19.829Z,1.30
2019-03-13T02:22:19.840Z,1.20
2019-03-13T02:23:19.836Z,1.40
2019-03-13T02:24:19.840Z,1.30
2019-03-13T02:25:19.844Z,1.40
2019-03-13T02:26:19.848Z,1.40
2019-03-13T02:27:19.855Z,2.00
2019-03-13T02:28:19.853Z,1.60
2019-03-13T02:29:19.853Z,1.30
2019-03-13T02:30:19.868Z,2.00
2019-03-13T02:31:19.871Z,1.30
2019-03-13T02:32:19.875Z,1.50
2019-03-13T02:33:19.869Z,1.50
2019-03-13T02:34:19.873Z,1.50
2019-03-13T02:35:19.905Z,1.40
2019-03-13T02:36:19.890Z,1.70
2019-03-13T02:37:19.899Z,1.50
2019-03-13T02:38:19.890Z,1.40
2019-03-13T02:39:19.908Z,1.40
2019-03-13T02:40:19.890Z,1.70
2019-03-13T02:41:19.899Z,1.50
2019-03-13T02:42:19.892Z,1.50
2019-03-13T02:43:19.902Z,1.10
2019-03-13T02:44:19.909Z,1.50
2019-03-13T02:45:19.908Z,1.50
2019-03-13T02:46:19.911Z,1.50
2019-03-13T02:47:19.932Z,1.30
2019-03-13T02:48:19.938Z,1.50
2019-03-13T02:49:19.922Z,2.00
2019-03-13T02:50:19.933Z,1.40
2019-03-13T02:51:19.930Z,1.70
2019-03-13T02:52:19.928Z,1.70
2019-03-13T02:53:19.935Z,1.70
2019-03-13T02:54:19.941Z,1.60
2019-03-13T02:55:19.944Z,1.90
2019-03-13T02:56:19.942Z,1.50
2019-03-13T02:57:19.947Z,1.50
2019-03-13T02:58:19.949Z,1.90
2019-03-13T02:59:19.954Z,2.00
2019-03-13T03:00:19.959Z,1.50
2019-03-13T03:01:19.961Z,1.70
2019-03-13T03:02:19.965Z,1.50
2019-03-13T03:03:19.966Z,1.80
2019-03-13T03:04:19.972Z,1.50
2019-03-13T03:05:19.974Z,1.50
2019-03-13T03:06:19.978Z,1.60
2019-03-13T03:07:19.979Z,2.00
2019-03-13T03:08:20.038Z,1.50
2019-03-13T03:09:19.990Z,1.70
2019-03-13T03:10:19.996Z,1.70
2019-03-13T03:11:19.997Z,2.10
2019-03-13T03:12:20.003Z,1.40
2019-03-13T03:13:19.994Z,2.00
2019-03-13T03:14:20.004Z,1.40
2019-03-13T03:15:20.008Z,1.70
2019-03-13T03:16:20.005Z,2.00
2019-03-13T03:17:20.009Z,1.40
2019-03-13T03:18:20.019Z,2.30
2019-03-13T03:19:20.014Z,1.60
2019-03-13T03:20:20.020Z,1.80
2019-03-13T03:21:20.021Z,1.40
2019-03-13T03:22:20.028Z,1.70
2019-03-13T03:23:20.029Z,1.40
2019-03-13T03:24:20.062Z,1.60
2019-03-13T03:25:20.033Z,2.90
2019-03-13T03:26:20.035Z,2.70
2019-03-13T03:27:20.039Z,1.80
2019-03-13T03:28:20.059Z,1.80
2019-03-13T03:29:20.047Z,1.80
2019-03-13T03:30:20.079Z,1.70
2019-03-13T03:31:20.072Z,2.00
2019-03-13T03:32:20.061Z,1.60
2019-03-13T03:33:20.057Z,1.80
2019-03-13T03:34:20.064Z,1.70
2019-03-13T03:35:20.086Z,1.80
2019-03-13T03:36:20.075Z,2.10
2019-03-13T03:37:20.078Z,2.00
2019-03-13T03:38:20.082Z,2.10
2019-03-13T03:39:20.079Z,1.80
2019-03-13T03:40:23.154Z,2.10
2019-03-13T03:41:20.084Z,2.20
2019-03-13T03:42:20.090Z,1.70
2019-03-13T03:43:20.092Z,2.10
2019-03-13T03:44:20.096Z,2.10
2019-03-13T03:45:20.097Z,1.60
2019-03-13T03:46:20.107Z,2.20
2019-03-13T03:47:20.110Z,1.70
2019-03-13T03:48:20.108Z,2.20
2019-03-13T03:49:20.108Z,2.20
2019-03-13T03:50:20.125Z,1.90
2019-03-13T03:51:20.119Z,1.90
2019-03-13T03:52:20.115Z,2.00
2019-03-13T03:53:20.124Z,2.40
2019-03-13T03:54:20.124Z,1.80
2019-03-13T03:55:20.125Z,1.70
2019-03-13T03:56:20.131Z,2.00
2019-03-13T03:57:20.133Z,1.80
2019-03-13T03:58:20.136Z,1.90
2019-03-13T03:59:20.145Z,2.30
2019-03-13T04:00:20.147Z,2.10
2019-03-13T04:01:20.146Z,1.70
2019-03-13T04:02:20.154Z,2.20
2019-03-13T04:03:20.150Z,2.00
2019-03-13T04:04:20.155Z,2.50
2019-03-13T04:05:20.170Z,1.50
2019-03-13T04:06:20.167Z,2.00
2019-03-13T04:07:20.170Z,1.80
2019-03-13T04:08:20.177Z,2.00
2019-03-13T04:09:20.168Z,1.80
2019-03-13T04:10:20.180Z,2.20
2019-03-13T04:11:20.180Z,2.10
2019-03-13T04:12:20.180Z,1.90
2019-03-13T04:13:20.181Z,2.10
2019-03-13T04:14:20.190Z,1.90
2019-03-13T04:15:20.188Z,2.00
2019-03-13T04:16:20.194Z,1.80
2019-03-13T04:17:20.196Z,1.70
2019-03-13T04:18:20.199Z,2.30
2019-03-13T04:19:20.199Z,1.70
2019-03-13T04:20:20.205Z,2.40
2019-03-13T04:21:20.222Z,2.20
2019-03-13T04:22:20.210Z,2.20
2019-03-13T04:23:20.215Z,3.00
2019-03-13T04:24:20.217Z,1.90
2019-03-13T04:25:20.230Z,1.50
2019-03-13T04:26:20.224Z,2.30
2019-03-13T04:27:20.226Z,1.70
2019-03-13T04:28:20.228Z,2.40
2019-03-13T04:29:20.235Z,1.60
2019-03-13T04:30:20.237Z,2.50
2019-03-13T04:31:20.245Z,1.70
2019-03-13T04:32:20.245Z,2.00
2019-03-13T04:33:20.246Z,2.00
2019-03-13T04:34:20.247Z,2.00
2019-03-13T04:35:20.256Z,2.10
2019-03-13T04:36:20.262Z,1.70
2019-03-13T04:37:20.255Z,2.30
2019-03-13T04:38:20.266Z,2.00
2019-03-13T04:39:20.264Z,2.60
2019-03-13T04:40:20.264Z,2.10
2019-03-13T04:41:20.270Z,2.00
2019-03-13T04:42:20.272Z,1.80
2019-03-13T04:43:20.275Z,2.00
2019-03-13T04:44:20.296Z,1.80
2019-03-13T04:45:20.294Z,2.20
2019-03-13T04:46:20.284Z,2.10
2019-03-13T04:47:20.288Z,3.10
2019-03-13T04:48:20.292Z,3.70
2019-03-13T04:49:20.290Z,1.70
2019-03-13T04:50:20.299Z,3.30
2019-03-13T04:51:20.298Z,2.80
2019-03-13T04:52:20.305Z,2.20
2019-03-13T04:53:20.306Z,2.40
2019-03-13T04:54:20.315Z,2.50
2019-03-13T04:55:20.311Z,2.40
2019-03-13T04:56:20.324Z,2.40
2019-03-13T04:57:20.318Z,2.10
2019-03-13T04:58:20.326Z,2.80
2019-03-13T04:59:20.324Z,4.00
2019-03-13T05:00:20.329Z,2.20
2019-03-13T05:01:20.329Z,2.50
2019-03-13T05:02:20.340Z,2.60
2019-03-13T05:03:20.339Z,2.80
2019-03-13T05:04:20.335Z,2.30
2019-03-13T05:05:20.344Z,2.80
2019-03-13T05:06:20.345Z,3.30
2019-03-13T05:07:20.350Z,2.20
2019-03-13T05:08:20.356Z,2.50
2019-03-13T05:09:20.355Z,2.20
2019-03-13T05:10:20.358Z,3.90
2019-03-13T05:11:20.361Z,2.50
2019-03-13T05:12:20.364Z,2.50
2019-03-13T05:13:20.366Z,2.10
2019-03-13T05:14:20.375Z,2.00
2019-03-13T05:15:20.376Z,2.40
2019-03-13T05:16:20.376Z,3.20
2019-03-13T05:17:20.379Z,2.80
2019-03-13T05:18:20.388Z,3.00
2019-03-13T05:19:20.395Z,1.80
2019-03-13T05:20:20.388Z,2.80
2019-03-13T05:21:20.390Z,1.80
2019-03-13T05:22:20.392Z,2.90
2019-03-13T05:23:20.402Z,2.70
2019-03-13T05:24:20.401Z,2.40
2019-03-13T05:25:20.403Z,2.80
2019-03-13T05:26:20.415Z,2.20
2019-03-13T05:27:20.414Z,2.60
2019-03-13T05:28:20.412Z,2.70
2019-03-13T05:29:20.419Z,2.90
2019-03-13T05:30:20.418Z,2.10
2019-03-13T05:31:20.420Z,2.80
2019-03-13T05:32:20.428Z,3.00
2019-03-13T05:33:20.570Z,3.10
2019-03-13T05:34:20.439Z,2.90
2019-03-13T05:35:20.434Z,2.20
2019-03-13T05:36:20.482Z,3.30
2019-03-13T05:37:20.454Z,3.00
2019-03-13T05:38:20.594Z,2.60
2019-03-13T05:39:20.451Z,2.40
2019-03-13T05:40:20.458Z,2.70
2019-03-13T05:41:20.455Z,2.00
2019-03-13T05:42:20.455Z,2.60
2019-03-13T05:43:20.459Z,2.30
2019-03-13T05:44:20.463Z,2.30
2019-03-13T05:45:20.463Z,2.00
2019-03-13T05:46:20.467Z,2.40
2019-03-13T05:47:20.475Z,2.00
2019-03-13T05:48:20.473Z,2.60
2019-03-13T05:49:20.473Z,2.80
2019-03-13T05:50:20.475Z,2.10
2019-03-13T05:51:20.481Z,2.60
2019-03-13T05:52:20.485Z,2.60
2019-03-13T05:53:20.495Z,2.20
2019-03-13T05:54:20.496Z,3.20
2019-03-13T05:55:20.495Z,2.30
2019-03-13T05:56:20.500Z,2.50
2019-03-13T05:57:20.501Z,2.40
2019-03-13T05:58:20.503Z,3.10
2019-03-13T05:59:20.507Z,2.50
2019-03-13T06:00:20.503Z,2.40
2019-03-13T06:01:20.512Z,2.60
2019-03-13T06:02:20.511Z,2.30
2019-03-13T06:03:20.521Z,1.80
2019-03-13T06:04:20.526Z,2.40
2019-03-13T06:05:20.521Z,1.70
2019-03-13T06:06:20.532Z,2.00
2019-03-13T06:07:20.533Z,2.50
2019-03-13T06:08:20.531Z,2.70
2019-03-13T06:09:20.531Z,2.30
2019-03-13T06:10:20.587Z,2.80
2019-03-13T06:11:20.539Z,2.10
2019-03-13T06:12:20.547Z,3.30
2019-03-13T06:13:20.551Z,3.20
2019-03-13T06:14:20.549Z,2.30
2019-03-13T06:15:20.558Z,2.30
2019-03-13T06:16:20.559Z,2.50
2019-03-13T06:17:20.567Z,3.70
2019-03-13T06:18:20.567Z,6.20
2019-03-13T06:19:20.569Z,6.00
2019-03-13T06:20:20.578Z,5.20
2019-03-13T06:21:20.575Z,5.90
2019-03-13T06:22:20.577Z,7.40
2019-03-13T06:23:20.579Z,5.20
2019-03-13T06:24:20.584Z,4.90
2019-03-13T06:25:20.587Z,6.00
2019-03-13T06:26:20.588Z,4.60
2019-03-13T06:27:20.592Z,5.20
2019-03-13T06:28:20.594Z,4.80
2019-03-13T06:29:20.601Z,5.10
2019-03-13T06:30:20.604Z,5.80
2019-03-13T06:31:20.607Z,4.40
2019-03-13T06:32:20.611Z,4.80
2019-03-13T06:33:20.632Z,6.90
2019-03-13T06:34:20.611Z,7.50
2019-03-13T06:35:23.606Z,12.40
2019-03-13T06:36:20.615Z,12.30
2019-03-13T06:37:20.623Z,12.10
2019-03-13T06:38:20.629Z,10.90
2019-03-13T06:39:20.623Z,12.30
2019-03-13T06:40:20.626Z,11.00
2019-03-13T06:41:20.635Z,7.50
2019-03-13T06:42:20.631Z,9.90
2019-03-13T06:43:20.707Z,9.50
2019-03-13T06:44:20.644Z,12.50
2019-03-13T06:45:23.150Z,17.00
2019-03-13T06:46:20.644Z,19.00
2019-03-13T06:47:20.653Z,20.00
2019-03-13T06:48:20.668Z,11.90
2019-03-13T06:49:20.659Z,13.00
2019-03-13T06:50:20.660Z,16.00
2019-03-13T06:51:20.662Z,13.80
2019-03-13T06:52:20.692Z,11.40
2019-03-13T06:53:20.668Z,11.80
2019-03-13T06:54:20.669Z,11.00
2019-03-13T06:55:20.697Z,11.50
2019-03-13T06:56:20.676Z,10.00
2019-03-13T06:57:20.690Z,8.00
2019-03-13T06:58:20.679Z,9.70
2019-03-13T06:59:20.688Z,10.00
2019-03-13T07:00:20.691Z,12.30
2019-03-13T07:01:20.694Z,8.20
2019-03-13T07:02:20.697Z,9.30
2019-03-13T07:03:20.697Z,10.60
2019-03-13T07:04:21.278Z,10.30
2019-03-13T07:05:20.702Z,8.20
2019-03-13T07:06:20.718Z,10.50
2019-03-13T07:07:20.711Z,9.50
2019-03-13T07:08:20.718Z,11.80
2019-03-13T07:09:20.717Z,23.80
2019-03-13T07:10:20.729Z,29.60
2019-03-13T07:11:20.724Z,21.40
2019-03-13T07:12:20.726Z,25.30
2019-03-13T07:13:20.727Z,21.70
2019-03-13T07:14:20.735Z,17.90
2019-03-13T07:15:20.738Z,21.20
2019-03-13T07:16:20.746Z,20.60
2019-03-13T07:17:20.751Z,16.80
2019-03-13T07:18:20.745Z,20.90
2019-03-13T07:19:20.751Z,17.10
2019-03-13T07:20:20.751Z,19.30
2019-03-13T07:21:23.297Z,16.00
2019-03-13T07:22:20.766Z,16.40
2019-03-13T07:23:20.773Z,15.70
2019-03-13T07:24:20.764Z,14.90
2019-03-13T07:25:20.769Z,12.90
2019-03-13T07:26:20.773Z,13.40
2019-03-13T07:27:20.776Z,13.00
2019-03-13T07:28:20.777Z,15.80
2019-03-13T07:29:20.781Z,13.30
2019-03-13T07:30:20.791Z,15.30
2019-03-13T07:31:20.796Z,13.00
2019-03-13T07:32:20.795Z,13.60
2019-03-13T07:33:20.800Z,12.90
2019-03-13T07:34:20.799Z,13.40
2019-03-13T07:35:20.805Z,15.50
2019-03-13T07:36:20.803Z,13.30
2019-03-13T07:37:20.811Z,11.90
2019-03-13T07:38:20.812Z,11.20
2019-03-13T07:39:20.831Z,13.00
2019-03-13T07:40:20.819Z,10.70
2019-03-13T07:41:20.821Z,12.40
2019-03-13T07:42:20.833Z,13.40
2019-03-13T07:43:20.833Z,11.10
2019-03-13T07:44:20.836Z,11.20
2019-03-13T07:45:20.836Z,11.40
2019-03-13T07:46:20.855Z,10.90
2019-03-13T07:47:20.856Z,10.70
2019-03-13T07:48:20.859Z,11.80
2019-03-13T07:49:20.848Z,10.20
2019-03-13T07:50:20.858Z,10.80
2019-03-13T07:51:20.860Z,10.50
2019-03-13T07:52:20.866Z,11.30
2019-03-13T07:53:20.872Z,9.30
2019-03-13T07:54:20.866Z,10.00
2019-03-13T07:55:20.869Z,11.00
2019-03-13T07:56:20.873Z,11.10
2019-03-13T07:57:20.882Z,11.60
2019-03-13T07:58:20.888Z,9.90
2019-03-13T07:59:20.888Z,11.30
2019-03-13T08:00:20.889Z,11.70
2019-03-13T08:01:20.892Z,10.60
2019-03-13T08:02:20.900Z,8.60
2019-03-13T08:03:20.907Z,8.60
2019-03-13T08:04:20.905Z,8.60
2019-03-13T08:05:20.913Z,8.60
2019-03-13T08:06:20.934Z,9.60
2019-03-13T08:07:20.919Z,8.40
2019-03-13T08:08:20.922Z,8.90
2019-03-13T08:09:20.922Z,7.70
2019-03-13T08:10:20.927Z,9.50
2019-03-13T08:11:20.931Z,8.40
2019-03-13T08:12:20.934Z,9.60
2019-03-13T08:13:20.940Z,9.10
2019-03-13T08:14:20.942Z,9.80
2019-03-13T08:15:20.949Z,8.20
2019-03-13T08:16:20.950Z,9.00
2019-03-13T08:17:20.960Z,8.60
2019-03-13T08:18:20.962Z,7.90
2019-03-13T08:19:24.055Z,9.90
2019-03-13T08:20:20.964Z,8.40
2019-03-13T08:21:20.968Z,9.70
2019-03-13T08:22:20.974Z,8.70
2019-03-13T08:23:20.978Z,8.00
2019-03-13T08:24:20.986Z,7.90
2019-03-13T08:25:20.986Z,7.10
2019-03-13T08:26:20.989Z,8.60
2019-03-13T08:27:20.991Z,8.10
2019-03-13T08:28:21.001Z,7.70
2019-03-13T08:29:20.996Z,7.90
2019-03-13T08:30:21.004Z,7.70
2019-03-13T08:31:21.010Z,8.90
2019-03-13T08:32:21.007Z,9.50
2019-03-13T08:33:21.019Z,8.00
2019-03-13T08:34:21.016Z,7.80
2019-03-13T08:35:21.022Z,9.30
2019-03-13T08:36:21.036Z,7.30
2019-03-13T08:37:21.026Z,8.30
2019-03-13T08:38:21.038Z,6.90
2019-03-13T08:39:21.040Z,8.60
2019-03-13T08:40:21.048Z,7.10
2019-03-13T08:41:21.046Z,7.90
2019-03-13T08:42:21.046Z,7.60
2019-03-13T08:43:21.054Z,6.40
2019-03-13T08:44:21.052Z,8.10
2019-03-13T08:45:21.061Z,6.80
2019-03-13T08:46:21.078Z,6.40
2019-03-13T08:47:21.074Z,7.10
2019-03-13T08:48:21.070Z,6.90
2019-03-13T08:49:21.074Z,7.40
2019-03-13T08:50:21.081Z,6.00
2019-03-13T08:51:21.084Z,6.60
2019-03-13T08:52:21.090Z,7.40
2019-03-13T08:53:21.087Z,6.10
2019-03-13T08:54:21.090Z,8.60
2019-03-13T08:55:21.099Z,7.20
2019-03-13T08:56:21.110Z,5.50
2019-03-13T08:57:21.102Z,6.80
2019-03-13T08:58:21.106Z,6.40
2019-03-13T08:59:23.458Z,7.10
2019-03-13T09:00:21.113Z,6.10
2019-03-13T09:01:21.117Z,6.40
2019-03-13T09:02:21.117Z,6.30
2019-03-13T09:03:21.129Z,5.90
2019-03-13T09:04:21.144Z,5.70
2019-03-13T09:05:21.134Z,6.50
2019-03-13T09:06:21.139Z,7.00
2019-03-13T09:07:21.136Z,6.80
2019-03-13T09:08:21.148Z,6.90
2019-03-13T09:09:21.150Z,6.70
2019-03-13T09:10:22.596Z,5.20
2019-03-13T09:11:21.154Z,7.10
2019-03-13T09:12:21.157Z,6.70
2019-03-13T09:13:21.160Z,5.90
2019-03-13T09:14:21.165Z,5.70
2019-03-13T09:15:21.168Z,5.90
2019-03-13T09:16:21.177Z,5.30
2019-03-13T09:17:21.174Z,5.10
2019-03-13T09:18:21.182Z,6.60
2019-03-13T09:19:21.187Z,6.30
2019-03-13T09:20:21.184Z,6.60
2019-03-13T09:21:21.186Z,5.30
2019-03-13T09:22:21.196Z,5.80
2019-03-13T09:23:21.197Z,5.80
2019-03-13T09:24:21.201Z,5.50
2019-03-13T09:25:21.203Z,5.70
2019-03-13T09:26:21.210Z,6.70
2019-03-13T09:27:21.218Z,4.20
2019-03-13T09:28:21.215Z,5.50
2019-03-13T09:29:21.355Z,5.30
2019-03-13T09:30:21.222Z,5.60
2019-03-13T09:31:21.223Z,4.40
2019-03-13T09:32:21.229Z,5.30
2019-03-13T09:33:21.223Z,4.80
2019-03-13T09:34:21.236Z,5.70
2019-03-13T09:35:21.246Z,5.30
2019-03-13T09:36:21.245Z,5.70
2019-03-13T09:37:21.250Z,5.60
2019-03-13T09:38:21.250Z,5.00
2019-03-13T09:39:21.263Z,5.30
2019-03-13T09:40:21.257Z,6.30
2019-03-13T09:41:21.262Z,5.30
2019-03-13T09:42:21.262Z,4.90
2019-03-13T09:43:21.268Z,5.00
2019-03-13T09:44:21.271Z,5.70
2019-03-13T09:45:21.276Z,5.10
2019-03-13T09:46:21.286Z,4.70
2019-03-13T09:47:21.292Z,5.40
2019-03-13T09:48:21.288Z,4.70
2019-03-13T09:49:21.292Z,5.80
2019-03-13T09:50:21.290Z,5.30
2019-03-13T09:51:21.300Z,5.60
2019-03-13T09:52:21.299Z,5.80
2019-03-13T09:53:21.301Z,4.30
2019-03-13T09:54:21.314Z,6.40
2019-03-13T09:55:21.311Z,4.60
2019-03-13T09:56:21.316Z,6.80
2019-03-13T09:57:21.317Z,5.80
2019-03-13T09:58:21.323Z,5.50
2019-03-13T09:59:21.320Z,4.80
2019-03-13T10:00:21.335Z,5.60
2019-03-13T10:01:21.329Z,5.50
2019-03-13T10:02:21.344Z,4.80
2019-03-13T10:03:21.357Z,4.50
2019-03-13T10:04:21.342Z,4.60
2019-03-13T10:05:21.350Z,3.90
2019-03-13T10:06:22.556Z,4.00
2019-03-13T10:07:21.353Z,6.60
2019-03-13T10:08:21.356Z,4.90
2019-03-13T10:09:21.362Z,4.70
2019-03-13T10:10:21.369Z,4.60
2019-03-13T10:11:21.371Z,4.60
2019-03-13T10:12:21.376Z,5.10
2019-03-13T10:13:21.375Z,4.90
2019-03-13T10:14:21.381Z,4.70
2019-03-13T10:15:21.382Z,4.90
2019-03-13T10:16:21.383Z,3.90
2019-03-13T10:17:21.397Z,5.70
2019-03-13T10:18:21.392Z,4.70
2019-03-13T10:19:21.406Z,5.20
2019-03-13T10:20:21.406Z,4.50
2019-03-13T10:21:21.406Z,5.60
2019-03-13T10:22:21.408Z,4.70
2019-03-13T10:23:21.407Z,4.40
2019-03-13T10:24:21.427Z,5.50
2019-03-13T10:25:21.415Z,5.40
2019-03-13T10:26:21.423Z,3.90
2019-03-13T10:27:21.427Z,4.10
2019-03-13T10:28:21.428Z,4.80
2019-03-13T10:29:21.430Z,4.70
2019-03-13T10:30:21.454Z,3.90
2019-03-13T10:31:21.442Z,4.10
2019-03-13T10:32:21.444Z,4.30
2019-03-13T10:33:21.451Z,4.30
2019-03-13T10:34:21.448Z,4.10
2019-03-13T10:35:21.456Z,4.30
2019-03-13T10:36:21.458Z,3.90
2019-03-13T10:37:21.462Z,4.50
2019-03-13T10:38:21.465Z,4.70
2019-03-13T10:39:21.470Z,3.80
2019-03-13T10:40:21.475Z,4.10
2019-03-13T10:41:21.503Z,4.60
2019-03-13T10:42:21.483Z,5.30
2019-03-13T10:43:21.487Z,3.80
2019-03-13T10:44:21.485Z,4.20
2019-03-13T10:45:21.505Z,5.10
2019-03-13T10:46:21.487Z,3.90
2019-03-13T10:47:21.499Z,3.80
2019-03-13T10:48:21.500Z,4.00
2019-03-13T10:49:21.507Z,4.40
2019-03-13T10:50:21.511Z,4.30
2019-03-13T10:51:21.515Z,4.80
2019-03-13T10:52:21.513Z,4.30
2019-03-13T10:53:21.519Z,4.20
2019-03-13T10:54:21.547Z,5.40
2019-03-13T10:55:21.533Z,3.80
2019-03-13T10:56:21.525Z,3.90
2019-03-13T10:57:21.529Z,4.50
2019-03-13T10:58:21.537Z,4.40
2019-03-13T10:59:21.541Z,3.70
2019-03-13T11:00:21.539Z,3.30
2019-03-13T11:01:21.552Z,3.80
2019-03-13T11:02:21.543Z,2.90
2019-03-13T11:03:21.558Z,5.00
2019-03-13T11:04:21.547Z,4.00
2019-03-13T11:05:21.576Z,4.40
2019-03-13T11:06:21.556Z,3.80
2019-03-13T11:07:21.568Z,3.70
2019-03-13T11:08:21.560Z,4.60
2019-03-13T11:09:21.578Z,4.00
2019-03-13T11:10:21.570Z,3.60
2019-03-13T11:11:21.585Z,4.40
2019-03-13T11:12:21.581Z,4.60
2019-03-13T11:13:21.588Z,5.50
2019-03-13T11:14:21.593Z,3.20
2019-03-13T11:15:21.600Z,4.00
2019-03-13T11:16:21.706Z,4.30
2019-03-13T11:17:21.608Z,4.60
2019-03-13T11:18:21.641Z,3.90
2019-03-13T11:19:21.626Z,4.30
2019-03-13T11:20:21.675Z,3.90
2019-03-13T11:21:21.614Z,4.10
2019-03-13T11:22:21.626Z,4.30
2019-03-13T11:23:21.624Z,4.10
2019-03-13T11:24:21.760Z,3.50
2019-03-13T11:25:21.649Z,3.20
2019-03-13T11:26:21.640Z,3.90
2019-03-13T11:27:21.641Z,3.90
2019-03-13T11:28:21.656Z,3.80
2019-03-13T11:29:21.648Z,3.30
2019-03-13T11:30:21.786Z,3.70
2019-03-13T11:31:21.654Z,5.00
2019-03-13T11:32:21.783Z,3.90
2019-03-13T11:33:21.661Z,3.50
2019-03-13T11:34:21.702Z,4.00
2019-03-13T11:35:21.664Z,3.30
2019-03-13T11:36:21.723Z,3.30
2019-03-13T11:37:21.673Z,3.80
2019-03-13T11:38:21.735Z,4.10
2019-03-13T11:39:21.680Z,3.40
2019-03-13T11:40:21.788Z,3.20
2019-03-13T11:41:21.682Z,2.90
2019-03-13T11:42:21.698Z,3.40
2019-03-13T11:43:21.692Z,4.10
2019-03-13T11:44:21.701Z,4.00
2019-03-13T11:45:21.741Z,4.00
2019-03-13T11:46:21.702Z,3.30
2019-03-13T11:47:21.712Z,3.10
2019-03-13T11:48:21.780Z,3.40
2019-03-13T11:49:21.710Z,4.30
2019-03-13T11:50:21.724Z,3.90
2019-03-13T11:51:21.720Z,3.60
2019-03-13T11:52:21.740Z,4.10
2019-03-13T11:53:21.727Z,4.20
2019-03-13T11:54:21.743Z,3.20
2019-03-13T11:55:21.737Z,3.50
2019-03-13T11:56:21.736Z,4.70
2019-03-13T11:57:21.743Z,3.80
2019-03-13T11:58:21.757Z,3.80
2019-03-13T11:59:21.753Z,3.50
2019-03-13T12:00:21.755Z,3.30
2019-03-13T12:01:21.754Z,3.00
2019-03-13T12:02:21.756Z,3.70
2019-03-13T12:03:21.761Z,3.90
2019-03-13T12:04:21.766Z,3.30
2019-03-13T12:05:21.763Z,3.60
2019-03-13T12:06:21.886Z,3.90
2019-03-13T12:07:21.776Z,3.40
2019-03-13T12:08:21.772Z,3.70
2019-03-13T12:09:21.782Z,2.90
2019-03-13T12:10:21.795Z,2.80
2019-03-13T12:11:21.789Z,3.60
2019-03-13T12:12:21.799Z,3.10
2019-03-13T12:13:21.797Z,3.30
2019-03-13T12:14:21.794Z,3.60
2019-03-13T12:15:21.801Z,3.90
2019-03-13T12:16:21.802Z,2.50
2019-03-13T12:17:21.814Z,3.70
2019-03-13T12:18:21.821Z,3.90
2019-03-13T12:19:21.814Z,3.50
2019-03-13T12:20:21.841Z,3.30
2019-03-13T12:21:21.825Z,3.70
2019-03-13T12:22:21.831Z,3.30
2019-03-13T12:23:21.828Z,3.00
2019-03-13T12:24:21.830Z,3.60
2019-03-13T12:25:21.831Z,3.30
2019-03-13T12:26:21.837Z,3.10
2019-03-13T12:27:21.839Z,3.30
2019-03-13T12:28:21.843Z,3.30
2019-03-13T12:29:21.845Z,3.30
2019-03-13T12:30:21.848Z,2.70
2019-03-13T12:31:21.855Z,3.50
2019-03-13T12:32:21.857Z,3.00
2019-03-13T12:33:21.864Z,3.30
2019-03-13T12:34:21.864Z,4.00
2019-03-13T12:35:21.871Z,3.00
2019-03-13T12:36:21.871Z,3.30
2019-03-13T12:37:21.873Z,3.00
2019-03-13T12:38:21.876Z,3.40
2019-03-13T12:39:21.891Z,3.30
2019-03-13T12:40:21.889Z,2.80
2019-03-13T12:41:21.890Z,3.70
2019-03-13T12:42:21.887Z,3.80
2019-03-13T12:43:21.903Z,4.20
2019-03-13T12:44:21.894Z,3.40
2019-03-13T12:45:21.903Z,2.90
2019-03-13T12:46:21.909Z,2.80
2019-03-13T12:47:21.903Z,3.80
2019-03-13T12:48:21.903Z,3.50
2019-03-13T12:49:21.909Z,3.70
2019-03-13T12:50:21.911Z,4.40
2019-03-13T12:51:21.915Z,3.50
2019-03-13T12:52:21.919Z,4.90
2019-03-13T12:53:21.925Z,3.50
2019-03-13T12:54:21.931Z,3.80
2019-03-13T12:55:21.935Z,3.70
2019-03-13T12:56:21.933Z,3.30
2019-03-13T12:57:21.942Z,3.70
2019-03-13T12:58:21.943Z,3.50
2019-03-13T12:59:21.969Z,3.70
2019-03-13T13:00:21.950Z,4.60
2019-03-13T13:01:21.949Z,3.30
2019-03-13T13:02:21.957Z,2.90
2019-03-13T13:03:21.957Z,4.60
2019-03-13T13:04:21.959Z,3.90
2019-03-13T13:05:21.962Z,4.40
2019-03-13T13:06:21.968Z,4.50
2019-03-13T13:07:21.972Z,4.00
2019-03-13T13:08:21.976Z,3.30
2019-03-13T13:09:21.981Z,4.00
2019-03-13T13:10:21.972Z,3.20
2019-03-13T13:11:21.988Z,3.20
2019-03-13T13:12:21.986Z,3.40
2019-03-13T13:13:21.996Z,3.90
2019-03-13T13:14:21.994Z,3.60
2019-03-13T13:15:21.998Z,3.90